首页
METAR-TAF:

METAR-TAF

机场 :

雷克雅維克, 冰岛

纬度: 64-08N, 经度: 021-54W, 海拔: 54米

当前天气观测

该预报发布于18分钟前的02:00 UTC
风速4节,风向东南
温度 7°C
湿度 81%
气压 1013 hPa
能见度10公里或以上
少量云层高于2000英尺
多云层高于12000英尺

METAR: BIRK 230200Z 14004KT 9999 FEW020 BKN120 07/04 Q1013

时间: 02:18 (02:18 UTC)

预报

该预报发布于3小时和21分钟前的22:57 UTC
预报有效从23日的 00点(UTC)到 23日的 24点(UTC)
风速3节,风向南转南东
能见度10公里或以上
少量云层高于1500英尺
多云层高于2000英尺
阴天层高于2500英尺
成为
从 23日的 09点(UTC)到 23日的 11点(UTC)
风速13节,风向东转东南
多云层高于1500英尺
阴天层高于2000英尺
成为
从 23日的 18点(UTC)到 23日的 21点(UTC)
风速10节,风向西南
多云层高于2500英尺

TAF: BIRK 222257Z 2300/2324 16003KT 9999 FEW015 BKN020 OVC025 TX12/2315Z TN06/2303Z BECMG 2309/2311 12013KT RA BKN015 OVC020 BECMG 2318/2321 22010KT NSW BKN025

超过4000个机场的气象观测和天气预报(METAR&TAF报告)。

可查询的气象台以黄色和红色小点在地图上表示。

将鼠标移到小点上方,可查看气象台名称。

然后点击查看天气观测和预报。

如需切换地图:点击带黑十字的绿色按钮放大地图;点击带横线的绿色按钮缩小地图;或者点击绿色箭头查看邻近地区的地图。


METAR-TAF: